首页
METAR-TAF:

METAR-TAF

机场 :

阿尔汉格尔斯克, 俄罗斯

纬度: 64-30N, 经度: 040-44E, 海拔: 13米

当前天气观测

该预报发布于29分钟前的09:00 UTC
风速6节,风向西转西北,在西之间变化
温度 10°C
湿度 76%
气压 995 hPa
能见度10公里或以上
多云层高于2100英尺, 积雨云.

METAR: ULAA 190900Z 30003MPS 270V350 9999 BKN021CB 10/06 Q0995 R26/290060 NOSIG RMK QFE745/0993

时间: 12:29 (09:29 UTC)

预报

该预报发布于1小时和29分钟前的08:00 UTC
预报有效从19日的 09点(UTC)到 20日的 09点(UTC)
风速6节,风向北转西北,有时为19节阵风
能见度10公里或以上
多云层高于1600英尺, 积雨云.
短暂存在
从 19日的 09点(UTC)到 19日的 18点(UTC)
风速10节,风向西转西北,有时为27节阵风
能見度: 1000
多云层高于300英尺
多云层高于1100英尺, 积雨云.
阵雨, 轻雾
短暂存在
从 19日的 18点(UTC)到 20日的 09点(UTC)
风速6节,风向西北,有时为17节阵风
能見度: 6000
少量云层高于500英尺
多云层高于1600英尺, 积雨云.
小阵雨

TAF: ULAA 190800Z 1909/2009 33003G10MPS 9999 BKN016CB TEMPO 1909/1918 30005G14MPS 1000 SHRA BR BKN003 BKN011CB TEMPO 1918/2009 31003G09MPS 6000 -SHRA FEW005 BKN016CB

超过4000个机场的气象观测和天气预报(METAR&TAF报告)。

可查询的气象台以黄色和红色小点在地图上表示。

将鼠标移到小点上方,可查看气象台名称。

然后点击查看天气观测和预报。

如需切换地图:点击带黑十字的绿色按钮放大地图;点击带横线的绿色按钮缩小地图;或者点击绿色箭头查看邻近地区的地图。


METAR-TAF: